TimeEDT,TemperatureF,Dew PointF,Humidity,Sea Level PressureIn,VisibilityMPH,Wind Direction,Wind SpeedMPH,Gust SpeedMPH,PrecipitationIn,Events,Conditions,WindDirDegrees,DateUTC
12:54 AM,73.9,68.0,82,30.08,10.0,South,9.2,-,N/A,,Partly Cloudy,180,2013-08-08 04:54:00
1:54 AM,73.0,66.9,81,30.07,10.0,South,6.9,-,N/A,,Clear,190,2013-08-08 05:54:00
2:54 AM,73.0,68.0,84,30.06,10.0,South,9.2,-,N/A,,Clear,190,2013-08-08 06:54:00
3:54 AM,73.9,68.0,82,30.06,10.0,South,10.4,-,N/A,,Clear,190,2013-08-08 07:54:00
4:54 AM,73.9,68.0,82,30.05,10.0,South,9.2,-,N/A,,Clear,190,2013-08-08 08:54:00
5:54 AM,73.0,68.0,84,30.06,10.0,South,9.2,-,N/A,,Clear,190,2013-08-08 09:54:00
6:54 AM,73.9,69.1,85,30.07,10.0,South,8.1,-,N/A,,Clear,190,2013-08-08 10:54:00
7:54 AM,75.0,70.0,84,30.08,10.0,SSW,6.9,-,N/A,,Clear,200,2013-08-08 11:54:00
8:54 AM,75.9,70.0,82,30.09,10.0,SSW,10.4,-,N/A,,Mostly Cloudy,200,2013-08-08 12:54:00
9:54 AM,80.1,72.0,76,30.08,10.0,SSW,9.2,-,N/A,,Clear,200,2013-08-08 13:54:00
10:54 AM,82.0,72.0,71,30.08,10.0,SW,12.7,-,N/A,,Scattered Clouds,220,2013-08-08 14:54:00
11:21 AM,82.4,71.6,70,30.08,10.0,SW,11.5,-,N/A,,Mostly Cloudy,230,2013-08-08 15:21:00
11:31 AM,82.4,71.6,70,30.08,10.0,SSW,11.5,-,N/A,,Scattered Clouds,210,2013-08-08 15:31:00
11:43 AM,82.4,71.6,70,30.07,10.0,SSW,9.2,-,N/A,,Mostly Cloudy,210,2013-08-08 15:43:00
11:54 AM,82.9,72.0,69,30.07,10.0,SW,12.7,-,N/A,,Mostly Cloudy,220,2013-08-08 15:54:00
12:04 PM,82.4,71.6,70,30.07,10.0,SSW,10.4,-,N/A,,Scattered Clouds,210,2013-08-08 16:04:00
12:54 PM,84.0,72.0,67,30.06,10.0,South,10.4,-,N/A,,Scattered Clouds,190,2013-08-08 16:54:00
1:54 PM,86.0,72.0,63,30.06,10.0,SSW,9.2,-,N/A,,Scattered Clouds,200,2013-08-08 17:54:00
2:54 PM,84.9,71.1,63,30.06,10.0,SW,8.1,-,N/A,,Partly Cloudy,220,2013-08-08 18:54:00
3:54 PM,84.0,73.0,69,30.05,10.0,South,12.7,-,N/A,,Mostly Cloudy,180,2013-08-08 19:54:00
4:54 PM,81.0,72.0,74,30.04,-9999.0,North,-9999.0,-,N/A,,Unknown,0,2013-08-08 20:54:00
5:54 PM,82.9,72.0,69,30.04,10.0,South,10.4,-,N/A,,Clear,170,2013-08-08 21:54:00
6:54 PM,80.1,71.1,74,30.03,10.0,South,9.2,-,N/A,,Clear,180,2013-08-08 22:54:00
7:54 PM,79.0,71.1,77,30.04,10.0,South,5.8,-,N/A,,Clear,170,2013-08-08 23:54:00
8:54 PM,77.0,72.0,84,30.04,10.0,South,8.1,-,N/A,,Clear,180,2013-08-09 00:54:00
9:54 PM,77.0,73.0,88,30.05,10.0,SSE,6.9,-,N/A,,Partly Cloudy,160,2013-08-09 01:54:00
10:54 PM,77.0,73.0,88,30.04,10.0,South,6.9,-,N/A,,Clear,170,2013-08-09 02:54:00
11:54 PM,75.9,73.0,91,30.03,10.0,South,8.1,-,N/A,,Clear,180,2013-08-09 03:54:00